Pineville, MO

10:05 PM CDT on October 22, 2014 (GMT -0500)
Grove Municipal | Change Station
CLOSE
Current Station
Airport
Location: Grove,
Elevation: 254 m
Nearby Weather Stations

Elev 254 m 36.60 °N, 94.74 °W | Updated 10 minutes ago

Clear
Clear
16 °C
Feels Like 16 °C
N
9
Wind Variable Wind from SE

Today
High -- | Low -- °C
--% Chance of Precip.
Yesterday
High -- | Low -- °C
Precip. -- mm
7:31 AM 6:32 PM
Waning Crescent, 1% visible
Pressure 1021 hPa
Visibility 16.1 kilometers
Clouds Clear
Dew Point 13 °C
Humidity 82%
Rainfall 0.0 mm
Snow Depth Not available.
UV 0 out of 12
Pollen 2.70 out of 12
Air Quality Not available.
Flu Activity No Activity
METAR KGMJ 230255Z AUTO 13005KT 10SM CLR 16/13 A3015 RMK AO2

More Conditions Fewer Conditions

Pressure 1021 hPa
Visibility 16.1 kilometers
Clouds Clear
Dew Point 13 °C
Humidity 82%
Rainfall 0.0 mm
Snow Depth Not available.
UV 0 out of 12
Pollen 2.70 out of 12
Air Quality Not available.
Flu Activity No Activity
METAR KGMJ 230255Z AUTO 13005KT 10SM CLR 16/13 A3015 RMK AO2

More Conditions Fewer Conditions

10-Day Weather Forecast

Almanac

Astronomy

Oct. 22, 2014 Rise Set
Actual Time 7:31 AM CDT 6:32 PM CDT
Civil Twilight 7:04 AM CDT 6:58 PM CDT
Nautical Twilight 6:34 AM CDT 7:28 PM CDT
Astronomical Twilight 6:04 AM CDT 7:58 PM CDT
Moon 6:15 AM CDT (10/22) 5:57 PM CDT (10/22)
Length of Visible Light 11h 53m
Length of Day
11h 00m
Tomorrow will be 2m 10s shorter.
Waning Crescent, 1% of the Moon is Illuminated
Today
Waning Crescent
Oct 23
New
Oct 30
First Quarter
Nov 6
Full
Nov 14
Last Quarter

Today's Extremes

State Highs State Lows

Community

WunderPhotos

Upload Photos

1,764,121 photos uploaded!

Nearby

Snow Depth

Station Depth Elevation
No new snow has been reported.

Earthquake Activity

City Distance Mag. Time & Date
No recent earthquake activity has been reported nearby.
Minimum magnitude displayed is 2.5.

Coastal Water Temperatures

Place Temperature
No Stations Reporting

Nearby Weather Stations